Terminal Aerodrome Forecast
Issued by NWS

Home | Current Version | Previous Version | Text Only | Print | Product List | Glossary Off
Versions: 1 2 3 4 5 6 7 8 9 10 11 12 13 14 15 16 17 18

076
FTUS43 KMPX 070520
TAFRNH
TAF
KRNH 070520Z 0706/0806 24017G25KT P6SM -SN OVC025
     FM071200 27019G26KT P6SM OVC025=

USA.gov is the U.S. government's official web portal to all federal, state and local government web resources and services.